Terminal Aerodrome Forecast
Issued by NWS

Home | Current Version | Previous Version | Text Only | Print | Product List | Glossary On
Versions: 1 2 3 4 5 6 7 8 9 10 11 12 13 14 15 16 17 18 19 20 21 22 23 24 25 26 27 28
000
FTUS46 KSGX 301125 CCA
TAFSAN
TAF COR
KSAN 301125Z 3012/0118 30003KT P6SM BKN010 BKN150
     FM301500 29005KT P6SM SCT015 BKN150
     FM301900 28009KT P6SM SCT150
     FM010300 VRB04KT P6SM FEW009 BKN120
      TEMPO 0113/0115 BKN008=

USA.gov is the U.S. government's official web portal to all federal, state and local government web resources and services.